ESSV/VBY METAR and TAF weather

Enter ICAO airport designator
Station Type Date Time Source
ESSV METAR 2022/12/10 02:50 UTC NOAA

ESSV 100250Z AUTO 35008KT 4400 -SN VV015 M00/M01 Q1008


Station Type Date Time Source
ESSV Decoded METAR 2022/12/10 02:50 UTC NOAA

Visby Flygplats, Sweden (ESSV) 57-40N 018-21E 47M
Dec 09, 2022 - 09:50 PM EST / 2022.12.10 0250 UTC
Wind: from the N (350 degrees) at 9 MPH (8 KT):0
Visibility: 2 mile(s):0
Sky conditions: obscured
Weather: light snow
Temperature: 32 F (0 C)
Windchill: 24 F (-4 C):1
Dew Point: 30 F (-1 C)
Relative Humidity: 92%
Pressure (altimeter): 29.77 in. Hg (1008 hPa)
ob: ESSV 100250Z AUTO 35008KT 4400 -SN VV015 M00/M01 Q1008
cycle: 3

Station Type Date Time Source
ESSV TAF 2017/09/20 09:39 UTC NOAA

TAF COR TAF COR ESSV 200840Z 2009/2021 10005KT 9999 BKN030 PROB40 2009/2016 4000 TS SHRA BKN015CB

Example: see airport list